| time (UTC) | temp C | wind direction | speed KPH | gust KPH | rain 1hr cm | rain 24hr cm | rain mn cm | humidity % | barometer mb |
| 20260510071702 | 22 | 165 | 1.6 | 3.2 | 0.00 | 0.00 | 0.00 | 83 | 1009.3 |
| 20260510071159 | 22 | 168 | 1.6 | 4.8 | 0.00 | 0.00 | 0.00 | 83 | 1009.5 |
| 20260510070656 | 22 | 147 | 1.6 | 3.2 | 0.00 | 0.00 | 0.00 | 83 | 1009.5 |
| 20260510070154 | 22 | 145 | 0.0 | 0.0 | 0.00 | 0.00 | 0.00 | 82 | 1009.8 |
| 20260510065649 | 22 | 139 | 0.0 | 0.0 | 0.00 | 0.00 | 0.00 | 82 | 1009.8 |
| 20260510065145 | 22 | 134 | 0.0 | 0.0 | 0.00 | 0.00 | 0.00 | 82 | 1009.6 |
| 20260510064642 | 22 | 132 | 0.0 | 0.0 | 0.00 | 0.00 | 0.00 | 81 | 1009.4 |
| 20260510064139 | 22 | 134 | 0.0 | 0.0 | 0.00 | 0.00 | 0.00 | 81 | 1009.4 |
| 20260510063636 | 22 | 179 | 3.2 | 4.8 | 0.00 | 0.00 | 0.00 | 80 | 1009.4 |
| 20260510063133 | 22 | 157 | 0.0 | 1.6 | 0.00 | 0.00 | 0.00 | 80 | 1009.4 |
| 20260510062629 | 22 | 179 | 3.2 | 8.0 | 0.00 | 0.00 | 0.00 | 80 | 1009.3 |
| 20260510062125 | 22 | 169 | 4.8 | 9.7 | 0.00 | 0.00 | 0.00 | 79 | 1009.4 |
| 20260510061620 | 22 | 130 | 0.0 | 0.0 | 0.00 | 0.00 | 0.00 | 79 | 1009.4 |
| 20260510061118 | 23 | 142 | 0.0 | 0.0 | 0.00 | 0.00 | 0.00 | 79 | 1009.4 |
| 20260510060613 | 23 | 141 | 0.0 | 0.0 | 0.00 | 0.00 | 0.00 | 78 | 1009.4 |
| 20260510060110 | 23 | 156 | 0.0 | 0.0 | 0.00 | 0.00 | 0.00 | 78 | 1009.3 |
| 20260510055606 | 23 | 107 | 0.0 | 0.0 | 0.00 | 0.00 | 0.00 | 77 | 1009.3 |
| 20260510055104 | 23 | 125 | 0.0 | 0.0 | 0.00 | 0.00 | 0.00 | 77 | 1009.0 |
| 20260510054600 | 23 | 122 | 0.0 | 0.0 | 0.00 | 0.00 | 0.00 | 77 | 1009.0 |
| 20260510054055 | 23 | 125 | 0.0 | 0.0 | 0.00 | 0.00 | 0.00 | 76 | 1009.3 |
| 20260510053554 | 23 | 129 | 0.0 | 0.0 | 0.00 | 0.00 | 0.00 | 77 | 1009.2 |
| 20260510053052 | 23 | 120 | 1.6 | 3.2 | 0.00 | 0.00 | 0.00 | 78 | 1009.1 |
| 20260510052548 | 23 | 126 | 0.0 | 0.0 | 0.00 | 0.00 | 0.00 | 78 | 1009.3 |
| 20260510052045 | 23 | 133 | 0.0 | 0.0 | 0.00 | 0.00 | 0.00 | 78 | 1009.3 |
| 20260510051540 | 23 | 118 | 0.0 | 0.0 | 0.00 | 0.00 | 0.00 | 79 | 1009.5 |
| 20260510051037 | 23 | 116 | 0.0 | 0.0 | 0.00 | 0.00 | 0.00 | 79 | 1009.4 |
| 20260510050534 | 23 | 133 | 0.0 | 0.0 | 0.00 | 0.00 | 0.00 | 79 | 1009.2 |
| 20260510050031 | 23 | 122 | 0.0 | 0.0 | 0.00 | 0.64 | 0.64 | 80 | 1009.4 |
| 20260510045528 | 23 | 122 | 0.0 | 0.0 | 0.00 | 0.64 | 0.64 | 81 | 1009.3 |
| 20260510045024 | 23 | 128 | 0.0 | 0.0 | 0.00 | 0.64 | 0.64 | 81 | 1009.3 |
| 20260510044521 | 23 | 123 | 0.0 | 0.0 | 0.00 | 0.64 | 0.64 | 82 | 1009.2 |
| 20260510044019 | 23 | 129 | 0.0 | 0.0 | 0.00 | 0.64 | 0.64 | 82 | 1009.3 |
| 20260510043514 | 23 | 116 | 0.0 | 0.0 | 0.00 | 0.64 | 0.64 | 83 | 1009.4 |
| 20260510043010 | 24 | 130 | 0.0 | 0.0 | 0.00 | 0.64 | 0.64 | 83 | 1009.4 |
| 20260510042504 | 24 | 147 | 0.0 | 0.0 | 0.00 | 0.64 | 0.64 | 83 | 1009.2 |
| 20260510041959 | 24 | 120 | 1.6 | 4.8 | 0.00 | 0.64 | 0.64 | 83 | 1009.3 |
| 20260510041456 | 24 | 119 | 0.0 | 0.0 | 0.00 | 0.64 | 0.64 | 83 | 1009.2 |
| 20260510040954 | 24 | 125 | 0.0 | 0.0 | 0.00 | 0.64 | 0.64 | 82 | 1009.0 |
| 20260510040450 | 24 | 139 | 0.0 | 0.0 | 0.00 | 0.64 | 0.64 | 82 | 1009.0 |
| 20260510035946 | 25 | 120 | 0.0 | 0.0 | 0.00 | 0.64 | 0.64 | 82 | 1009.1 |
| 20260510035443 | 25 | 118 | 0.0 | 0.0 | 0.00 | 0.64 | 0.64 | 83 | 1009.0 |
| 20260510034942 | 25 | 118 | 0.0 | 0.0 | 0.00 | 0.64 | 0.64 | 83 | 1009.0 |
| 20260510034442 | 25 | 112 | 0.0 | 0.0 | 0.00 | 0.64 | 0.64 | 82 | 1009.0 |
| 20260510033937 | 25 | 113 | 0.0 | 0.0 | 0.00 | 0.64 | 0.64 | 81 | 1008.9 |
| 20260510033433 | 25 | 111 | 0.0 | 0.0 | 0.00 | 0.64 | 0.64 | 81 | 1008.9 |
| 20260510032931 | 25 | 121 | 0.0 | 0.0 | 0.00 | 0.64 | 0.64 | 80 | 1009.0 |
| 20260510032428 | 25 | 127 | 0.0 | 0.0 | 0.00 | 0.64 | 0.64 | 80 | 1008.8 |
| 20260510031922 | 25 | 130 | 0.0 | 0.0 | 0.00 | 0.64 | 0.64 | 79 | 1008.6 |
| 20260510031418 | 25 | 123 | 0.0 | 0.0 | 0.00 | 0.64 | 0.64 | 80 | 1008.7 |
| 20260510030913 | 25 | 122 | 0.0 | 0.0 | 0.00 | 0.64 | 0.64 | 79 | 1008.5 |
| 20260510030409 | 26 | 137 | 0.0 | 0.0 | 0.00 | 0.64 | 0.64 | 80 | 1008.5 |
| 20260510025907 | 26 | 129 | 0.0 | 0.0 | 0.00 | 0.64 | 0.64 | 79 | 1008.5 |
| 20260510025405 | 26 | 122 | 0.0 | 0.0 | 0.00 | 0.64 | 0.64 | 79 | 1008.4 |
| 20260510024902 | 26 | 151 | 0.0 | 0.0 | 0.00 | 0.64 | 0.64 | 79 | 1008.4 |
| 20260510024358 | 26 | 122 | 0.0 | 0.0 | 0.00 | 0.64 | 0.64 | 79 | 1008.2 |
| 20260510023854 | 26 | 83 | 0.0 | 1.6 | 0.00 | 0.64 | 0.64 | 78 | 1008.1 |
| 20260510023351 | 26 | 163 | 4.8 | 4.8 | 0.00 | 0.64 | 0.64 | 78 | 1008.0 |
| 20260510022848 | 26 | 127 | 0.0 | 0.0 | 0.00 | 0.64 | 0.64 | 78 | 1008.1 |
| 20260510022347 | 26 | 176 | 0.0 | 3.2 | 0.00 | 0.64 | 0.64 | 78 | 1008.0 |
| 20260510021846 | 26 | 137 | 0.0 | 1.6 | 0.00 | 0.64 | 0.64 | 77 | 1007.7 |
| 20260510021344 | 26 | 129 | 0.0 | 0.0 | 0.00 | 0.64 | 0.64 | 77 | 1008.0 |
| 20260510020841 | 27 | 166 | 0.0 | 0.0 | 0.00 | 0.64 | 0.64 | 76 | 1007.8 |
| 20260510020341 | 27 | 152 | 0.0 | 0.0 | 0.00 | 0.64 | 0.64 | 75 | 1007.6 |
| 20260510015837 | 27 | 119 | 0.0 | 0.0 | 0.00 | 0.64 | 0.64 | 74 | 1007.5 |
| 20260510015332 | 27 | 124 | 0.0 | 0.0 | 0.00 | 0.64 | 0.64 | 74 | 1007.6 |
| 20260510014828 | 27 | 127 | 0.0 | 0.0 | 0.00 | 0.64 | 0.64 | 73 | 1007.3 |
| 20260510014326 | 27 | 125 | 0.0 | 0.0 | 0.00 | 0.64 | 0.64 | 72 | 1007.4 |
| 20260510013821 | 27 | 133 | 0.0 | 0.0 | 0.00 | 0.64 | 0.64 | 72 | 1007.5 |
| 20260510013317 | 27 | 123 | 0.0 | 0.0 | 0.00 | 0.64 | 0.64 | 71 | 1007.3 |
| 20260510012812 | 28 | 131 | 0.0 | 0.0 | 0.00 | 0.64 | 0.64 | 70 | 1007.1 |
| 20260510012312 | 28 | 117 | 0.0 | 0.0 | 0.00 | 0.64 | 0.64 | 70 | 1007.2 |
| 20260510011807 | 28 | 127 | 0.0 | 0.0 | 0.00 | 0.64 | 0.64 | 69 | 1007.2 |
| 20260510011303 | 28 | 132 | 1.6 | 3.2 | 0.00 | 0.64 | 0.64 | 69 | 1007.3 |
| 20260510010800 | 28 | 127 | 0.0 | 0.0 | 0.00 | 0.64 | 0.64 | 68 | 1007.2 |
| 20260510010256 | 28 | 129 | 0.0 | 0.0 | 0.00 | 0.64 | 0.64 | 67 | 1007.1 |
| 20260510005753 | 28 | 124 | 0.0 | 0.0 | 0.00 | 0.64 | 0.64 | 66 | 1007.1 |
| 20260510005249 | 28 | 122 | 0.0 | 0.0 | 0.00 | 0.64 | 0.64 | 65 | 1007.1 |
| 20260510004748 | 29 | 111 | 0.0 | 1.6 | 0.00 | 0.64 | 0.64 | 64 | 1006.9 |
| 20260510004245 | 29 | 162 | 1.6 | 3.2 | 0.00 | 0.64 | 0.64 | 64 | 1007.1 |
| 20260510003742 | 29 | 115 | 0.0 | 0.0 | 0.00 | 0.64 | 0.64 | 64 | 1007.0 |
| 20260510003239 | 29 | 109 | 1.6 | 1.6 | 0.00 | 0.64 | 0.64 | 63 | 1006.8 |
| 20260510002737 | 30 | 140 | 9.7 | 11.3 | 0.00 | 0.64 | 0.64 | 63 | 1007.1 |
| 20260510002235 | 30 | 142 | 0.0 | 1.6 | 0.00 | 0.64 | 0.64 | 63 | 1006.9 |
| 20260510001731 | 30 | 137 | 6.4 | 11.3 | 0.00 | 0.64 | 0.64 | 61 | 1006.8 |
| 20260510001230 | 30 | 106 | 1.6 | 1.6 | 0.00 | 0.64 | 0.64 | 61 | 1006.8 |
| 20260510000726 | 30 | 126 | 0.0 | 0.0 | 0.00 | 0.64 | 0.64 | 61 | 1006.7 |
| 20260510000223 | 30 | 95 | 0.0 | 1.6 | 0.00 | 0.64 | 0.64 | 59 | 1006.7 |
| 20260509235720 | 30 | 137 | 0.0 | 0.0 | 0.00 | 0.64 | 0.64 | 58 | 1006.7 |
| 20260509235216 | 30 | 129 | 0.0 | 0.0 | 0.00 | 0.64 | 0.64 | 56 | 1006.5 |
| 20260509234712 | 30 | 154 | 1.6 | 1.6 | 0.00 | 0.64 | 0.64 | 56 | 1006.5 |
| 20260509234209 | 30 | 107 | 0.0 | 0.0 | 0.00 | 0.64 | 0.64 | 56 | 1006.7 |
| 20260509233708 | 30 | 132 | 0.0 | 0.0 | 0.00 | 0.64 | 0.64 | 56 | 1006.3 |
| 20260509233205 | 30 | 132 | 0.0 | 1.6 | 0.00 | 0.64 | 0.64 | 55 | 1006.4 |
| 20260509232701 | 30 | 103 | 1.6 | 3.2 | 0.00 | 0.64 | 0.64 | 56 | 1006.4 |
| 20260509232157 | 30 | 112 | 0.0 | 0.0 | 0.00 | 0.64 | 0.64 | 55 | 1006.3 |
| 20260509231655 | 30 | 85 | 1.6 | 3.2 | 0.00 | 0.64 | 0.64 | 55 | 1006.4 |
| 20260509231152 | 30 | 100 | 6.4 | 8.0 | 0.00 | 0.64 | 0.64 | 53 | 1006.6 |
| 20260509230649 | 30 | 124 | 0.0 | 1.6 | 0.00 | 0.64 | 0.64 | 52 | 1006.6 |
| 20260509230146 | 30 | 114 | 0.0 | 0.0 | 0.00 | 0.64 | 0.64 | 52 | 1006.4 |
| 20260509225641 | 30 | 84 | 1.6 | 1.6 | 0.00 | 0.64 | 0.64 | 53 | 1006.5 |
| 20260509225137 | 30 | 110 | 1.6 | 3.2 | 0.00 | 0.64 | 0.64 | 52 | 1006.4 |
| 20260509224633 | 30 | 107 | 0.0 | 0.0 | 0.00 | 0.64 | 0.64 | 52 | 1006.5 |
| 20260509224130 | 30 | 118 | 0.0 | 0.0 | 0.00 | 0.64 | 0.64 | 52 | 1006.5 |
| 20260509223627 | 30 | 104 | 4.8 | 8.0 | 0.00 | 0.64 | 0.64 | 52 | 1006.6 |
| 20260509223124 | 30 | 106 | 1.6 | 3.2 | 0.00 | 0.64 | 0.64 | 51 | 1006.4 |
| 20260509222620 | 30 | 110 | 0.0 | 0.0 | 0.00 | 0.64 | 0.64 | 48 | 1006.5 |
| 20260509222116 | 30 | 123 | 0.0 | 1.6 | 0.00 | 0.64 | 0.64 | 51 | 1006.3 |
| 20260509221612 | 30 | 133 | 0.0 | 0.0 | 0.00 | 0.64 | 0.64 | 53 | 1006.3 |
| 20260509221108 | 29 | 100 | 0.0 | 1.6 | 0.00 | 0.64 | 0.64 | 52 | 1006.6 |
| 20260509220604 | 30 | 105 | 0.0 | 0.0 | 0.00 | 0.64 | 0.64 | 52 | 1006.4 |
| 20260509215556 | 29 | 148 | 0.0 | 0.0 | 0.00 | 0.64 | 0.64 | 56 | 1006.5 |
| 20260509215054 | 30 | 197 | 8.0 | 11.3 | 0.00 | 0.64 | 0.64 | 56 | 1006.5 |
| 20260509214551 | 29 | 159 | 1.6 | 3.2 | 0.00 | 0.64 | 0.64 | 57 | 1006.6 |
| 20260509214047 | 28 | 124 | 1.6 | 3.2 | 0.00 | 0.64 | 0.64 | 61 | 1006.6 |
| 20260509213543 | 28 | 148 | 3.2 | 4.8 | 0.00 | 0.64 | 0.64 | 65 | 1006.8 |
| 20260509213041 | 29 | 141 | 1.6 | 3.2 | 0.00 | 0.64 | 0.64 | 66 | 1006.6 |
| 20260509212537 | 28 | 177 | 1.6 | 3.2 | 0.00 | 0.64 | 0.64 | 65 | 1006.7 |
| 20260509212035 | 29 | 119 | 3.2 | 4.8 | 0.00 | 0.64 | 0.64 | 64 | 1007.0 |
| 20260509211530 | 29 | 131 | 0.0 | 0.0 | 0.00 | 0.64 | 0.64 | 63 | 1007.1 |
| 20260509211027 | 29 | 139 | 0.0 | 1.6 | 0.00 | 0.64 | 0.64 | 62 | 1007.1 |
| 20260509210524 | 30 | 186 | 3.2 | 3.2 | 0.00 | 0.64 | 0.64 | 61 | 1007.0 |
| 20260509210020 | 30 | 164 | 4.8 | 9.7 | 0.00 | 0.64 | 0.64 | 55 | 1007.1 |
| 20260509205515 | 30 | 119 | 0.0 | 0.0 | 0.00 | 0.64 | 0.64 | 47 | 1007.4 |
| 20260509205010 | 30 | 132 | 0.0 | 0.0 | 0.00 | 0.64 | 0.64 | 51 | 1007.0 |
| 20260509204507 | 30 | 133 | 3.2 | 4.8 | 0.00 | 0.64 | 0.64 | 51 | 1007.1 |
| 20260509204003 | 29 | 111 | 3.2 | 3.2 | 0.00 | 0.64 | 0.64 | 48 | 1007.1 |
| 20260509203459 | 29 | 132 | 0.0 | 1.6 | 0.00 | 0.64 | 0.64 | 49 | 1007.2 |
| 20260509202957 | 29 | 108 | 0.0 | 0.0 | 0.00 | 0.64 | 0.64 | 49 | 1007.2 |
| 20260509202453 | 28 | 117 | 0.0 | 0.0 | 0.00 | 0.64 | 0.64 | 58 | 1007.3 |
| 20260509201948 | 27 | 91 | 0.0 | 1.6 | 0.00 | 0.64 | 0.64 | 58 | 1007.2 |
| 20260509201443 | 27 | 151 | 0.0 | 1.6 | 0.00 | 0.64 | 0.64 | 64 | 1007.4 |
| 20260509200940 | 26 | 133 | 0.0 | 0.0 | 0.00 | 0.64 | 0.64 | 68 | 1007.4 |
| 20260509200440 | 25 | 87 | 4.8 | 8.0 | 0.00 | 0.64 | 0.64 | 70 | 1008.1 |
| 20260509195937 | 25 | 80 | 6.4 | 8.0 | 0.00 | 0.64 | 0.64 | 69 | 1008.2 |
| 20260509195427 | 23 | 108 | 9.7 | 14.5 | 0.00 | 0.64 | 0.64 | 67 | 1008.4 |
| 20260509194926 | 22 | 83 | 11.3 | 14.5 | 0.00 | 0.64 | 0.64 | 73 | 1008.6 |
| 20260509194422 | 22 | 81 | 8.0 | 12.9 | 0.00 | 0.64 | 0.64 | 78 | 1008.5 |
| 20260509193920 | 21 | 112 | 12.9 | 14.5 | 0.48 | 0.64 | 0.64 | 79 | 1008.3 |
| 20260509193419 | 20 | 109 | 14.5 | 20.9 | 1.37 | 0.64 | 0.64 | 86 | 1008.4 |
| 20260509192916 | 20 | 107 | 16.1 | 20.9 | 2.29 | 0.58 | 0.58 | 85 | 1008.3 |
| 20260509192412 | 20 | 80 | 14.5 | 24.1 | 2.46 | 0.43 | 0.43 | 87 | 1008.3 |
| 20260509191907 | 23 | 51 | 9.7 | 14.5 | 0.89 | 0.15 | 0.15 | 84 | 1007.8 |
| 20260509191403 | 27 | 64 | 9.7 | 11.3 | 0.00 | 0.00 | 0.00 | 84 | 1008.0 |
| 20260509190859 | 28 | 93 | 4.8 | 9.7 | 0.00 | 0.00 | 0.00 | 79 | 1007.8 |
| 20260509190356 | 30 | 120 | 4.8 | 8.0 | 0.00 | 0.00 | 0.00 | 74 | 1007.8 |
| 20260509185854 | 30 | 161 | 4.8 | 4.8 | 0.00 | 0.00 | 0.00 | 66 | 1007.7 |
| 20260509185350 | 30 | 125 | 1.6 | 3.2 | 0.00 | 0.00 | 0.00 | 65 | 1008.0 |
| 20260509184847 | 30 | 173 | 4.8 | 8.0 | 0.00 | 0.00 | 0.00 | 64 | 1007.8 |
| 20260509184344 | 31 | 173 | 11.3 | 14.5 | 0.00 | 0.00 | 0.00 | 63 | 1008.3 |
| 20260509183841 | 31 | 207 | 4.8 | 9.7 | 0.00 | 0.00 | 0.00 | 61 | 1007.8 |
| 20260509183336 | 31 | 141 | 3.2 | 4.8 | 0.00 | 0.00 | 0.00 | 65 | 1008.4 |
| 20260509182832 | 30 | 151 | 3.2 | 4.8 | 0.00 | 0.00 | 0.00 | 66 | 1008.3 |
| 20260509182330 | 31 | 175 | 4.8 | 4.8 | 0.00 | 0.00 | 0.00 | 64 | 1008.6 |
| 20260509181827 | 31 | 145 | 1.6 | 1.6 | 0.00 | 0.00 | 0.00 | 65 | 1008.7 |
| 20260509181324 | 31 | 116 | 0.0 | 0.0 | 0.00 | 0.00 | 0.00 | 66 | 1008.7 |
| 20260509180821 | 30 | 93 | 0.0 | 0.0 | 0.00 | 0.00 | 0.00 | 68 | 1008.8 |
| 20260509180317 | 31 | 157 | 0.0 | 1.6 | 0.00 | 0.00 | 0.00 | 67 | 1008.7 |
| 20260509175814 | 31 | 151 | 3.2 | 3.2 | 0.00 | 0.00 | 0.00 | 66 | 1008.8 |
| 20260509175311 | 31 | 161 | 3.2 | 3.2 | 0.00 | 0.00 | 0.00 | 67 | 1008.8 |
| 20260509174806 | 30 | 161 | 1.6 | 3.2 | 0.00 | 0.00 | 0.00 | 70 | 1008.7 |
| 20260509174302 | 30 | 196 | 8.0 | 11.3 | 0.00 | 0.00 | 0.00 | 71 | 1009.0 |
| 20260509173758 | 30 | 169 | 0.0 | 1.6 | 0.00 | 0.00 | 0.00 | 71 | 1009.1 |
| 20260509173254 | 30 | 111 | 0.0 | 0.0 | 0.00 | 0.00 | 0.00 | 71 | 1009.4 |
| 20260509172750 | 30 | 143 | 1.6 | 4.8 | 0.00 | 0.00 | 0.00 | 70 | 1009.3 |
| 20260509172247 | 30 | 86 | 1.6 | 3.2 | 0.00 | 0.00 | 0.00 | 70 | 1009.3 |
| 20260509171742 | 30 | 125 | 0.0 | 0.0 | 0.00 | 0.00 | 0.00 | 71 | 1009.4 |
| 20260509171239 | 30 | 199 | 4.8 | 4.8 | 0.00 | 0.00 | 0.00 | 71 | 1009.3 |
| 20260509170736 | 30 | 140 | 1.6 | 3.2 | 0.00 | 0.00 | 0.00 | 72 | 1009.3 |
| 20260509170232 | 28 | 171 | 0.0 | 0.0 | 0.00 | 0.00 | 0.00 | 75 | 1009.2 |
| 20260509165730 | 28 | 128 | 4.8 | 4.8 | 0.00 | 0.00 | 0.00 | 76 | 1009.1 |
| 20260509165225 | 29 | 203 | 3.2 | 8.0 | 0.00 | 0.00 | 0.00 | 74 | 1009.2 |
| 20260509164722 | 28 | 204 | 4.8 | 9.7 | 0.00 | 0.00 | 0.00 | 75 | 1009.2 |
| 20260509164217 | 28 | 180 | 8.0 | 9.7 | 0.00 | 0.00 | 0.00 | 76 | 1009.3 |
| 20260509163715 | 28 | 173 | 6.4 | 8.0 | 0.00 | 0.00 | 0.00 | 77 | 1009.4 |
| 20260509163212 | 28 | 188 | 6.4 | 8.0 | 0.00 | 0.00 | 0.00 | 76 | 1009.3 |
| 20260509162709 | 28 | 192 | 8.0 | 9.7 | 0.00 | 0.00 | 0.00 | 78 | 1009.3 |
| 20260509162204 | 28 | 160 | 4.8 | 11.3 | 0.00 | 0.00 | 0.00 | 75 | 1009.3 |
| 20260509161700 | 28 | 153 | 4.8 | 9.7 | 0.00 | 0.00 | 0.00 | 78 | 1009.3 |
| 20260509161156 | 27 | 146 | 0.0 | 0.0 | 0.00 | 0.00 | 0.00 | 79 | 1009.4 |
| 20260509160652 | 28 | 107 | 1.6 | 4.8 | 0.00 | 0.00 | 0.00 | 79 | 1009.4 |
| 20260509160148 | 27 | 143 | 3.2 | 4.8 | 0.00 | 0.00 | 0.00 | 79 | 1009.4 |
| 20260509155644 | 27 | 159 | 8.0 | 14.5 | 0.00 | 0.00 | 0.00 | 82 | 1009.3 |
| 20260509155140 | 27 | 151 | 0.0 | 1.6 | 0.00 | 0.00 | 0.00 | 82 | 1009.6 |
| 20260509154636 | 26 | 229 | 1.6 | 4.8 | 0.00 | 0.00 | 0.00 | 84 | 1009.4 |
| 20260509154133 | 26 | 160 | 0.0 | 1.6 | 0.00 | 0.00 | 0.00 | 85 | 1009.3 |
| 20260509153630 | 26 | 204 | 8.0 | 9.7 | 0.00 | 0.00 | 0.00 | 87 | 1009.2 |
| 20260509153127 | 25 | 165 | 4.8 | 9.7 | 0.00 | 0.00 | 0.00 | 88 | 1009.3 |
| 20260509152622 | 25 | 160 | 3.2 | 4.8 | 0.00 | 0.00 | 0.00 | 90 | 1009.3 |
| 20260509152120 | 25 | 176 | 4.8 | 4.8 | 0.00 | 0.00 | 0.00 | 90 | 1009.5 |
| 20260509151616 | 25 | 187 | 11.3 | 12.9 | 0.00 | 0.00 | 0.00 | 89 | 1009.2 |
| 20260509151114 | 25 | 166 | 8.0 | 12.9 | 0.00 | 0.00 | 0.00 | 90 | 1009.2 |
| 20260509150611 | 25 | 135 | 0.0 | 1.6 | 0.00 | 0.00 | 0.00 | 91 | 1009.0 |
| 20260509150110 | 24 | 160 | 1.6 | 4.8 | 0.00 | 0.00 | 0.00 | 93 | 1009.1 |
| 20260509145605 | 24 | 160 | 11.3 | 12.9 | 0.00 | 0.00 | 0.00 | 94 | 1009.0 |
| 20260509145101 | 23 | 167 | 6.4 | 8.0 | 0.00 | 0.00 | 0.00 | 95 | 1009.1 |
| 20260509144558 | 23 | 166 | 8.0 | 11.3 | 0.00 | 0.00 | 0.00 | 95 | 1009.0 |
| 20260509144055 | 23 | 126 | 0.0 | 0.0 | 0.00 | 0.00 | 0.00 | 96 | 1009.1 |
| 20260509143552 | 23 | 154 | 1.6 | 3.2 | 0.00 | 0.00 | 0.00 | 96 | 1009.3 |
| 20260509143049 | 23 | 143 | 8.0 | 11.3 | 0.00 | 0.00 | 0.00 | 96 | 1009.1 |
| 20260509142545 | 23 | 204 | 8.0 | 9.7 | 0.00 | 0.00 | 0.00 | 97 | 1008.6 |
| 20260509142041 | 23 | 179 | 4.8 | 4.8 | 0.00 | 0.00 | 0.00 | 97 | 1008.8 |
| 20260509141537 | 23 | 159 | 0.0 | 0.0 | 0.00 | 0.00 | 0.00 | 97 | 1008.9 |
| 20260509141034 | 23 | 189 | 3.2 | 3.2 | 0.00 | 0.00 | 0.00 | 98 | 1008.8 |
| 20260509140531 | 23 | 206 | 3.2 | 11.3 | 0.00 | 0.00 | 0.00 | 98 | 1008.4 |
| 20260509140029 | 23 | 148 | 3.2 | 8.0 | 0.00 | 0.00 | 0.00 | 98 | 1008.6 |
| 20260509135525 | 23 | 179 | 1.6 | 1.6 | 0.00 | 0.00 | 0.00 | 99 | 1008.4 |
| 20260509135023 | 22 | 171 | 4.8 | 8.0 | 0.00 | 0.00 | 0.00 | 99 | 1008.7 |
| 20260509134520 | 23 | 144 | 1.6 | 3.2 | 0.00 | 0.00 | 0.00 | 99 | 1008.7 |
| 20260509134018 | 23 | 139 | 0.0 | 0.0 | 0.00 | 0.00 | 0.00 | 99 | 1008.8 |
| 20260509133514 | 23 | 134 | 0.0 | 0.0 | 0.00 | 0.00 | 0.00 | 99 | 1008.9 |
| 20260509133012 | 22 | 139 | 0.0 | 0.0 | 0.00 | 0.00 | 0.00 | 99 | 1008.9 |
| 20260509132510 | 22 | 130 | 0.0 | 0.0 | 0.00 | 0.00 | 0.00 | 99 | 1009.1 |
| 20260509132008 | 22 | 163 | 0.0 | 0.0 | 0.00 | 0.00 | 0.00 | 99 | 1009.3 |
| 20260509131504 | 22 | 216 | 0.0 | 1.6 | 0.00 | 0.00 | 0.00 | 99 | 1009.3 |
| 20260509131001 | 22 | 150 | 0.0 | 0.0 | 0.00 | 0.00 | 0.00 | 99 | 1009.2 |
| 20260509130456 | 22 | 145 | 0.0 | 0.0 | 0.00 | 0.00 | 0.00 | 99 | 1009.4 |
| 20260509125954 | 22 | 140 | 0.0 | 0.0 | 0.00 | 0.00 | 0.00 | 99 | 1009.2 |
| 20260509125450 | 22 | 120 | 0.0 | 0.0 | 0.00 | 0.00 | 0.00 | 99 | 1009.0 |
| 20260509124946 | 22 | 121 | 0.0 | 0.0 | 0.00 | 0.00 | 0.00 | 99 | 1009.0 |
| 20260509124443 | 22 | 115 | 0.0 | 0.0 | 0.00 | 0.00 | 0.00 | 99 | 1009.2 |
| 20260509123940 | 22 | 108 | 0.0 | 0.0 | 0.00 | 0.00 | 0.00 | 99 | 1008.7 |
| 20260509123438 | 22 | 135 | 0.0 | 0.0 | 0.00 | 0.00 | 0.00 | 99 | 1008.6 |
| 20260509122933 | 22 | 133 | 0.0 | 0.0 | 0.00 | 0.00 | 0.00 | 99 | 1008.5 |
| 20260509122431 | 22 | 156 | 0.0 | 0.0 | 0.00 | 0.00 | 0.00 | 99 | 1008.7 |
| 20260509121927 | 22 | 146 | 0.0 | 0.0 | 0.00 | 0.00 | 0.00 | 99 | 1009.1 |
| 20260509121424 | 22 | 112 | 0.0 | 0.0 | 0.00 | 0.00 | 0.00 | 99 | 1008.8 |
| 20260509120923 | 22 | 108 | 0.0 | 0.0 | 0.00 | 0.00 | 0.00 | 99 | 1008.6 |
| 20260509120420 | 22 | 134 | 0.0 | 0.0 | 0.00 | 0.00 | 0.00 | 99 | 1008.8 |
| 20260509115918 | 22 | 153 | 0.0 | 0.0 | 0.00 | 0.00 | 0.00 | 99 | 1008.8 |
| 20260509115415 | 22 | 94 | 0.0 | 0.0 | 0.00 | 0.00 | 0.00 | 99 | 1009.0 |
| 20260509114913 | 22 | 78 | 1.6 | 4.8 | 0.00 | 0.00 | 0.00 | 99 | 1008.8 |
| 20260509114411 | 22 | 117 | 0.0 | 0.0 | 0.00 | 0.00 | 0.00 | 99 | 1009.2 |
| 20260509113910 | 22 | 107 | 0.0 | 0.0 | 0.00 | 0.00 | 0.00 | 99 | 1009.0 |
| 20260509113407 | 22 | 74 | 0.0 | 0.0 | 0.00 | 0.00 | 0.00 | 99 | 1009.2 |
| 20260509112903 | 22 | 340 | 1.6 | 3.2 | 0.00 | 0.00 | 0.00 | 99 | 1009.6 |
| 20260509112400 | 22 | 90 | 0.0 | 0.0 | 0.00 | 0.00 | 0.00 | 99 | 1009.8 |
| 20260509111858 | 22 | 112 | 0.0 | 0.0 | 0.00 | 0.00 | 0.00 | 99 | 1009.6 |
| 20260509111354 | 22 | 127 | 0.0 | 0.0 | 0.00 | 0.00 | 0.00 | 99 | 1009.9 |
| 20260509110852 | 22 | 129 | 0.0 | 0.0 | 0.00 | 0.00 | 0.00 | 99 | 1009.8 |
| 20260509110348 | 22 | 111 | 0.0 | 0.0 | 0.00 | 0.00 | 0.00 | 99 | 1009.5 |
| 20260509105847 | 22 | 115 | 0.0 | 0.0 | 0.00 | 0.00 | 0.00 | 99 | 1009.7 |
| 20260509105345 | 22 | 95 | 0.0 | 0.0 | 0.00 | 0.00 | 0.00 | 99 | 1009.8 |
| 20260509104841 | 22 | 94 | 0.0 | 0.0 | 0.00 | 0.00 | 0.00 | 99 | 1009.8 |
| 20260509104337 | 22 | 100 | 0.0 | 0.0 | 0.00 | 0.00 | 0.00 | 99 | 1009.9 |
| 20260509103835 | 22 | 129 | 0.0 | 0.0 | 0.00 | 0.00 | 0.00 | 99 | 1009.7 |
| 20260509103332 | 22 | 131 | 0.0 | 0.0 | 0.00 | 0.00 | 0.00 | 99 | 1010.0 |
| 20260509102831 | 22 | 118 | 0.0 | 0.0 | 0.00 | 0.00 | 0.00 | 99 | 1009.9 |
| 20260509102328 | 22 | 105 | 0.0 | 0.0 | 0.00 | 0.00 | 0.00 | 99 | 1009.9 |
| 20260509101824 | 22 | 44 | 1.6 | 3.2 | 0.00 | 0.00 | 0.00 | 99 | 1009.7 |
| 20260509101320 | 22 | 103 | 0.0 | 0.0 | 0.00 | 0.00 | 0.00 | 99 | 1009.8 |
| 20260509100818 | 22 | 90 | 0.0 | 0.0 | 0.00 | 0.00 | 0.00 | 99 | 1009.4 |
| 20260509100315 | 22 | 104 | 0.0 | 0.0 | 0.00 | 0.00 | 0.00 | 99 | 1009.2 |
| 20260509095811 | 22 | 103 | 0.0 | 0.0 | 0.00 | 0.00 | 0.00 | 99 | 1009.1 |
| 20260509095309 | 22 | 121 | 0.0 | 0.0 | 0.00 | 0.00 | 0.00 | 99 | 1008.6 |
| 20260509094806 | 22 | 123 | 0.0 | 0.0 | 0.00 | 0.00 | 0.00 | 99 | 1008.5 |
| 20260509094302 | 22 | 117 | 0.0 | 0.0 | 0.00 | 0.00 | 0.00 | 99 | 1008.2 |
| 20260509093800 | 22 | 116 | 0.0 | 0.0 | 0.00 | 0.00 | 0.00 | 99 | 1008.8 |
| 20260509093257 | 22 | 121 | 0.0 | 0.0 | 0.00 | 0.00 | 0.00 | 99 | 1008.6 |
| 20260509092755 | 22 | 124 | 0.0 | 0.0 | 0.00 | 0.00 | 0.00 | 99 | 1008.5 |
| 20260509092253 | 22 | 116 | 0.0 | 0.0 | 0.00 | 0.00 | 0.00 | 99 | 1008.4 |
| 20260509091751 | 22 | 117 | 0.0 | 0.0 | 0.00 | 0.00 | 0.00 | 99 | 1008.3 |
| 20260509091247 | 22 | 101 | 0.0 | 0.0 | 0.00 | 0.00 | 0.00 | 99 | 1008.4 |
| 20260509090745 | 22 | 107 | 0.0 | 0.0 | 0.00 | 0.00 | 0.00 | 99 | 1008.5 |
| 20260509090242 | 22 | 69 | 0.0 | 0.0 | 0.00 | 0.00 | 0.00 | 99 | 1008.6 |
| 20260509085739 | 22 | 103 | 0.0 | 0.0 | 0.00 | 0.00 | 0.00 | 99 | 1008.7 |
| 20260509085237 | 22 | 103 | 0.0 | 0.0 | 0.00 | 0.00 | 0.00 | 98 | 1008.7 |
| 20260509084733 | 22 | 104 | 0.0 | 0.0 | 0.00 | 0.00 | 0.00 | 98 | 1008.5 |
| 20260509084230 | 22 | 104 | 0.0 | 0.0 | 0.00 | 0.00 | 0.00 | 98 | 1008.6 |
| 20260509083728 | 22 | 98 | 0.0 | 0.0 | 0.00 | 0.00 | 0.00 | 98 | 1008.7 |
| 20260509083224 | 22 | 103 | 0.0 | 0.0 | 0.00 | 0.00 | 0.00 | 98 | 1008.8 |
| 20260509082721 | 22 | 110 | 0.0 | 0.0 | 0.00 | 0.00 | 0.00 | 98 | 1008.9 |
| 20260509082218 | 22 | 121 | 0.0 | 0.0 | 0.00 | 0.00 | 0.00 | 98 | 1009.1 |
| 20260509081714 | 22 | 119 | 0.0 | 0.0 | 0.00 | 0.00 | 0.00 | 98 | 1009.2 |
| 20260509081212 | 22 | 113 | 0.0 | 0.0 | 0.00 | 0.00 | 0.00 | 98 | 1008.8 |
| 20260509080710 | 22 | 111 | 0.0 | 0.0 | 0.00 | 0.00 | 0.00 | 98 | 1008.8 |
| 20260509080208 | 22 | 102 | 0.0 | 0.0 | 0.00 | 0.00 | 0.00 | 98 | 1008.8 |
| 20260509075706 | 22 | 110 | 0.0 | 0.0 | 0.00 | 0.00 | 0.00 | 98 | 1009.2 |
| 20260509075203 | 22 | 117 | 0.0 | 0.0 | 0.00 | 0.00 | 0.00 | 98 | 1009.1 |
| 20260509074700 | 22 | 98 | 0.0 | 0.0 | 0.00 | 0.00 | 0.00 | 98 | 1009.0 |
| 20260509074156 | 22 | 115 | 0.0 | 0.0 | 0.00 | 0.00 | 0.00 | 98 | 1009.0 |
| 20260509073653 | 22 | 106 | 0.0 | 0.0 | 0.00 | 0.00 | 0.00 | 98 | 1009.1 |
| 20260509073149 | 22 | 109 | 0.0 | 0.0 | 0.00 | 0.00 | 0.00 | 97 | 1009.1 |
| 20260509072646 | 22 | 100 | 0.0 | 0.0 | 0.00 | 0.00 | 0.00 | 97 | 1008.9 |
| 20260509072143 | 22 | 111 | 0.0 | 0.0 | 0.00 | 0.00 | 0.00 | 97 | 1009.3 |